Terminal Aerodrome Forecast
Issued by NWS

Current Version | Previous Version | Text Only | Print | Product List | Glossary On
Versions: 1 2 3 4 5 6 7 8 9 10 11 12 13 14 15 16 17 18 19 20 21 22 23
000
FTUS44 KLIX 282300
TAFHDC
TAF
KHDC 282328Z 2900/2924 26007KT P6SM VCSH SCT035
     FM290200 29004KT P6SM FEW050 SCT250
     FM291400 36005KT P6SM SCT045 SCT250=

USA.gov is the U.S. government's official web portal to all federal, state and local government web resources and services.